sensor_id;sensor_type;location;lat;lon;timestamp;P1;durP1;ratioP1;P2;durP2;ratioP2
34296;SDS011;20564;42.902;25.336;2023-09-19T00:00:38;1.35;;;0.77;;
34296;SDS011;20564;42.902;25.336;2023-09-19T00:03:08;0.95;;;0.70;;
34296;SDS011;20564;42.902;25.336;2023-09-19T00:05:36;2.10;;;0.90;;
34296;SDS011;20564;42.902;25.336;2023-09-19T00:08:12;0.95;;;0.57;;
34296;SDS011;20564;42.902;25.336;2023-09-19T00:10:42;0.47;;;0.40;;
34296;SDS011;20564;42.902;25.336;2023-09-19T00:13:10;0.55;;;0.43;;
34296;SDS011;20564;42.902;25.336;2023-09-19T00:15:44;2.30;;;0.55;;
34296;SDS011;20564;42.902;25.336;2023-09-19T00:18:17;2.63;;;0.57;;
34296;SDS011;20564;42.902;25.336;2023-09-19T00:20:49;0.75;;;0.60;;
34296;SDS011;20564;42.902;25.336;2023-09-19T00:23:18;1.55;;;0.55;;
34296;SDS011;20564;42.902;25.336;2023-09-19T00:28:13;0.80;;;0.57;;
34296;SDS011;20564;42.902;25.336;2023-09-19T00:30:43;1.13;;;0.90;;
34296;SDS011;20564;42.902;25.336;2023-09-19T00:33:11;1.15;;;0.95;;
34296;SDS011;20564;42.902;25.336;2023-09-19T00:38:19;1.55;;;0.47;;
34296;SDS011;20564;42.902;25.336;2023-09-19T00:40:49;0.17;;;0.13;;
34296;SDS011;20564;42.902;25.336;2023-09-19T00:43:17;0.60;;;0.20;;
34296;SDS011;20564;42.902;25.336;2023-09-19T00:45:45;0.40;;;0.40;;
34296;SDS011;20564;42.902;25.336;2023-09-19T00:48:18;0.90;;;0.40;;
34296;SDS011;20564;42.902;25.336;2023-09-19T00:50:46;1.05;;;0.70;;
34296;SDS011;20564;42.902;25.336;2023-09-19T00:53:15;0.98;;;0.50;;
34296;SDS011;20564;42.902;25.336;2023-09-19T00:55:45;0.20;;;0.20;;
34296;SDS011;20564;42.902;25.336;2023-09-19T00:58:13;0.30;;;0.30;;
34296;SDS011;20564;42.902;25.336;2023-09-19T01:00:40;4.43;;;0.55;;
34296;SDS011;20564;42.902;25.336;2023-09-19T01:03:11;1.45;;;0.60;;
34296;SDS011;20564;42.902;25.336;2023-09-19T01:05:40;0.47;;;0.40;;
34296;SDS011;20564;42.902;25.336;2023-09-19T01:08:07;0.30;;;0.30;;
34296;SDS011;20564;42.902;25.336;2023-09-19T01:10:34;0.30;;;0.30;;
34296;SDS011;20564;42.902;25.336;2023-09-19T01:15:49;0.45;;;0.28;;
34296;SDS011;20564;42.902;25.336;2023-09-19T01:21:10;0.20;;;0.10;;
34296;SDS011;20564;42.902;25.336;2023-09-19T01:30:09;0.20;;;0.20;;
34296;SDS011;20564;42.902;25.336;2023-09-19T01:32:42;0.30;;;0.20;;
34296;SDS011;20564;42.902;25.336;2023-09-19T01:35:11;0.28;;;0.17;;
34296;SDS011;20564;42.902;25.336;2023-09-19T01:37:40;0.45;;;0.35;;
34296;SDS011;20564;42.902;25.336;2023-09-19T01:40:11;1.45;;;1.02;;
34296;SDS011;20564;42.902;25.336;2023-09-19T01:42:52;0.52;;;0.30;;
34296;SDS011;20564;42.902;25.336;2023-09-19T01:48:30;0.47;;;0.32;;
34296;SDS011;20564;42.902;25.336;2023-09-19T01:51:06;0.10;;;0.10;;
34296;SDS011;20564;42.902;25.336;2023-09-19T01:53:41;0.28;;;0.28;;
34296;SDS011;20564;42.902;25.336;2023-09-19T01:56:22;2.20;;;0.80;;
34296;SDS011;20564;42.902;25.336;2023-09-19T01:58:53;2.53;;;1.00;;
34296;SDS011;20564;42.902;25.336;2023-09-19T02:01:26;0.20;;;0.13;;
34296;SDS011;20564;42.902;25.336;2023-09-19T02:03:55;1.83;;;0.82;;
34296;SDS011;20564;42.902;25.336;2023-09-19T02:08:51;1.55;;;0.60;;
34296;SDS011;20564;42.902;25.336;2023-09-19T02:11:18;2.85;;;1.20;;
34296;SDS011;20564;42.902;25.336;2023-09-19T02:13:45;0.60;;;0.47;;
34296;SDS011;20564;42.902;25.336;2023-09-19T02:16:12;0.47;;;0.47;;
34296;SDS011;20564;42.902;25.336;2023-09-19T02:18:43;1.00;;;0.63;;
34296;SDS011;20564;42.902;25.336;2023-09-19T02:21:10;0.63;;;0.30;;
34296;SDS011;20564;42.902;25.336;2023-09-19T02:23:38;0.52;;;0.40;;
34296;SDS011;20564;42.902;25.336;2023-09-19T02:26:06;0.00;;;0.00;;
34296;SDS011;20564;42.902;25.336;2023-09-19T02:28:33;0.65;;;0.57;;
34296;SDS011;20564;42.902;25.336;2023-09-19T02:31:02;0.85;;;0.30;;
34296;SDS011;20564;42.902;25.336;2023-09-19T02:33:32;2.30;;;1.02;;
34296;SDS011;20564;42.902;25.336;2023-09-19T02:35:59;0.20;;;0.20;;
34296;SDS011;20564;42.902;25.336;2023-09-19T02:38:27;1.30;;;0.75;;
34296;SDS011;20564;42.902;25.336;2023-09-19T02:43:23;0.08;;;0.08;;
34296;SDS011;20564;42.902;25.336;2023-09-19T02:45:50;2.17;;;0.93;;
34296;SDS011;20564;42.902;25.336;2023-09-19T02:48:20;1.65;;;0.65;;
34296;SDS011;20564;42.902;25.336;2023-09-19T02:50:50;0.70;;;0.32;;
34296;SDS011;20564;42.902;25.336;2023-09-19T02:53:18;0.55;;;0.43;;
34296;SDS011;20564;42.902;25.336;2023-09-19T02:55:46;2.55;;;1.05;;
34296;SDS011;20564;42.902;25.336;2023-09-19T02:58:15;0.55;;;0.35;;
34296;SDS011;20564;42.902;25.336;2023-09-19T03:00:46;0.38;;;0.38;;
34296;SDS011;20564;42.902;25.336;2023-09-19T03:03:17;0.85;;;0.45;;
34296;SDS011;20564;42.902;25.336;2023-09-19T03:05:44;0.30;;;0.20;;
34296;SDS011;20564;42.902;25.336;2023-09-19T03:08:17;0.75;;;0.60;;
34296;SDS011;20564;42.902;25.336;2023-09-19T03:10:48;0.00;;;0.00;;
34296;SDS011;20564;42.902;25.336;2023-09-19T03:13:15;0.10;;;0.10;;
34296;SDS011;20564;42.902;25.336;2023-09-19T03:15:47;0.38;;;0.38;;
34296;SDS011;20564;42.902;25.336;2023-09-19T03:18:17;1.65;;;0.40;;
34296;SDS011;20564;42.902;25.336;2023-09-19T03:20:52;0.60;;;0.40;;
34296;SDS011;20564;42.902;25.336;2023-09-19T03:23:22;0.10;;;0.10;;
34296;SDS011;20564;42.902;25.336;2023-09-19T03:25:50;0.05;;;0.05;;
34296;SDS011;20564;42.902;25.336;2023-09-19T03:28:19;0.17;;;0.17;;
34296;SDS011;20564;42.902;25.336;2023-09-19T03:31:01;0.77;;;0.65;;
34296;SDS011;20564;42.902;25.336;2023-09-19T03:33:30;4.53;;;1.70;;
34296;SDS011;20564;42.902;25.336;2023-09-19T03:36:01;2.05;;;1.00;;
34296;SDS011;20564;42.902;25.336;2023-09-19T03:38:34;0.65;;;0.52;;
34296;SDS011;20564;42.902;25.336;2023-09-19T03:41:02;0.70;;;0.63;;
34296;SDS011;20564;42.902;25.336;2023-09-19T03:43:31;0.10;;;0.10;;
34296;SDS011;20564;42.902;25.336;2023-09-19T03:46:01;0.63;;;0.40;;
34296;SDS011;20564;42.902;25.336;2023-09-19T03:48:32;1.20;;;0.50;;
34296;SDS011;20564;42.902;25.336;2023-09-19T03:53:27;0.13;;;0.13;;
34296;SDS011;20564;42.902;25.336;2023-09-19T03:55:54;0.40;;;0.37;;
34296;SDS011;20564;42.902;25.336;2023-09-19T03:58:24;1.35;;;0.73;;
34296;SDS011;20564;42.902;25.336;2023-09-19T04:00:55;3.45;;;0.95;;
34296;SDS011;20564;42.902;25.336;2023-09-19T04:03:23;0.82;;;0.45;;
34296;SDS011;20564;42.902;25.336;2023-09-19T04:05:51;0.85;;;0.57;;
34296;SDS011;20564;42.902;25.336;2023-09-19T04:08:18;2.63;;;1.38;;
34296;SDS011;20564;42.902;25.336;2023-09-19T04:10:45;0.13;;;0.13;;
34296;SDS011;20564;42.902;25.336;2023-09-19T04:13:14;0.85;;;0.75;;
34296;SDS011;20564;42.902;25.336;2023-09-19T04:15:42;0.95;;;0.60;;
34296;SDS011;20564;42.902;25.336;2023-09-19T04:18:09;0.50;;;0.43;;
34296;SDS011;20564;42.902;25.336;2023-09-19T04:20:36;1.75;;;0.68;;
34296;SDS011;20564;42.902;25.336;2023-09-19T04:23:03;0.32;;;0.32;;
34296;SDS011;20564;42.902;25.336;2023-09-19T04:25:32;0.38;;;0.38;;
34296;SDS011;20564;42.902;25.336;2023-09-19T04:27:59;0.43;;;0.38;;
34296;SDS011;20564;42.902;25.336;2023-09-19T04:30:26;1.05;;;0.40;;
34296;SDS011;20564;42.902;25.336;2023-09-19T04:32:53;12.48;;;1.38;;
34296;SDS011;20564;42.902;25.336;2023-09-19T04:35:20;2.08;;;0.55;;
34296;SDS011;20564;42.902;25.336;2023-09-19T04:37:47;0.20;;;0.20;;
34296;SDS011;20564;42.902;25.336;2023-09-19T04:40:15;0.10;;;0.10;;
34296;SDS011;20564;42.902;25.336;2023-09-19T04:42:44;0.88;;;0.77;;
34296;SDS011;20564;42.902;25.336;2023-09-19T04:45:12;54.25;;;8.60;;
34296;SDS011;20564;42.902;25.336;2023-09-19T04:47:39;0.30;;;0.25;;
34296;SDS011;20564;42.902;25.336;2023-09-19T04:50:07;0.40;;;0.15;;
34296;SDS011;20564;42.902;25.336;2023-09-19T04:52:42;3.70;;;1.15;;
34296;SDS011;20564;42.902;25.336;2023-09-19T04:55:12;1.27;;;0.80;;
34296;SDS011;20564;42.902;25.336;2023-09-19T04:57:49;0.20;;;0.20;;
34296;SDS011;20564;42.902;25.336;2023-09-19T05:00:17;0.30;;;0.30;;
34296;SDS011;20564;42.902;25.336;2023-09-19T05:02:54;0.80;;;0.38;;
34296;SDS011;20564;42.902;25.336;2023-09-19T05:05:26;0.38;;;0.25;;
34296;SDS011;20564;42.902;25.336;2023-09-19T05:07:53;1.23;;;0.70;;
34296;SDS011;20564;42.902;25.336;2023-09-19T05:10:21;0.63;;;0.43;;
34296;SDS011;20564;42.902;25.336;2023-09-19T05:12:48;1.58;;;0.20;;
34296;SDS011;20564;42.902;25.336;2023-09-19T05:15:19;0.98;;;0.73;;
34296;SDS011;20564;42.902;25.336;2023-09-19T05:17:48;0.17;;;0.15;;
34296;SDS011;20564;42.902;25.336;2023-09-19T05:20:24;2.83;;;1.17;;
34296;SDS011;20564;42.902;25.336;2023-09-19T05:25:31;1.20;;;0.63;;
34296;SDS011;20564;42.902;25.336;2023-09-19T05:27:59;1.00;;;0.73;;
34296;SDS011;20564;42.902;25.336;2023-09-19T05:32:53;0.68;;;0.20;;
34296;SDS011;20564;42.902;25.336;2023-09-19T05:35:21;0.35;;;0.35;;
34296;SDS011;20564;42.902;25.336;2023-09-19T05:37:52;0.10;;;0.10;;
34296;SDS011;20564;42.902;25.336;2023-09-19T05:40:21;0.55;;;0.45;;
34296;SDS011;20564;42.902;25.336;2023-09-19T05:42:48;0.40;;;0.20;;
34296;SDS011;20564;42.902;25.336;2023-09-19T05:45:17;1.02;;;0.52;;
34296;SDS011;20564;42.902;25.336;2023-09-19T05:47:53;10.88;;;2.28;;
34296;SDS011;20564;42.902;25.336;2023-09-19T05:50:27;0.57;;;0.40;;
34296;SDS011;20564;42.902;25.336;2023-09-19T05:52:54;0.63;;;0.47;;
34296;SDS011;20564;42.902;25.336;2023-09-19T05:55:22;0.57;;;0.40;;
34296;SDS011;20564;42.902;25.336;2023-09-19T05:57:52;4.20;;;2.22;;
34296;SDS011;20564;42.902;25.336;2023-09-19T06:00:20;11.32;;;4.50;;
34296;SDS011;20564;42.902;25.336;2023-09-19T06:02:52;58.72;;;22.00;;
34296;SDS011;20564;42.902;25.336;2023-09-19T06:05:21;25.83;;;13.13;;
34296;SDS011;20564;42.902;25.336;2023-09-19T06:07:48;18.23;;;8.95;;
34296;SDS011;20564;42.902;25.336;2023-09-19T06:10:17;7.57;;;3.95;;
34296;SDS011;20564;42.902;25.336;2023-09-19T06:12:44;3.60;;;2.22;;
34296;SDS011;20564;42.902;25.336;2023-09-19T06:15:12;6.50;;;2.67;;
34296;SDS011;20564;42.902;25.336;2023-09-19T06:17:49;6.95;;;3.47;;
34296;SDS011;20564;42.902;25.336;2023-09-19T06:20:20;8.82;;;3.67;;
34296;SDS011;20564;42.902;25.336;2023-09-19T06:22:48;21.52;;;6.55;;
34296;SDS011;20564;42.902;25.336;2023-09-19T06:25:16;8.48;;;5.40;;
34296;SDS011;20564;42.902;25.336;2023-09-19T06:27:47;10.88;;;3.92;;
34296;SDS011;20564;42.902;25.336;2023-09-19T06:30:22;4.97;;;2.38;;
34296;SDS011;20564;42.902;25.336;2023-09-19T06:32:57;5.80;;;3.85;;
34296;SDS011;20564;42.902;25.336;2023-09-19T06:35:26;16.77;;;5.80;;
34296;SDS011;20564;42.902;25.336;2023-09-19T06:37:56;8.35;;;2.30;;
34296;SDS011;20564;42.902;25.336;2023-09-19T06:40:25;6.20;;;1.90;;
34296;SDS011;20564;42.902;25.336;2023-09-19T06:42:52;2.88;;;1.38;;
34296;SDS011;20564;42.902;25.336;2023-09-19T06:45:20;4.38;;;0.70;;
34296;SDS011;20564;42.902;25.336;2023-09-19T06:47:49;2.50;;;1.40;;
34296;SDS011;20564;42.902;25.336;2023-09-19T06:50:18;7.20;;;2.22;;
34296;SDS011;20564;42.902;25.336;2023-09-19T06:52:50;0.90;;;0.65;;
34296;SDS011;20564;42.902;25.336;2023-09-19T06:55:21;3.85;;;1.08;;
34296;SDS011;20564;42.902;25.336;2023-09-19T06:57:52;2.63;;;1.15;;
34296;SDS011;20564;42.902;25.336;2023-09-19T07:00:21;3.72;;;0.95;;
34296;SDS011;20564;42.902;25.336;2023-09-19T07:05:28;2.20;;;1.40;;
34296;SDS011;20564;42.902;25.336;2023-09-19T07:07:59;1.60;;;0.70;;
34296;SDS011;20564;42.902;25.336;2023-09-19T07:10:28;7.43;;;0.65;;
34296;SDS011;20564;42.902;25.336;2023-09-19T07:15:24;5.72;;;1.15;;
34296;SDS011;20564;42.902;25.336;2023-09-19T07:17:53;3.70;;;1.55;;
34296;SDS011;20564;42.902;25.336;2023-09-19T07:20:23;1.30;;;1.05;;
34296;SDS011;20564;42.902;25.336;2023-09-19T07:22:58;1.55;;;0.93;;
34296;SDS011;20564;42.902;25.336;2023-09-19T07:25:29;0.75;;;0.65;;
34296;SDS011;20564;42.902;25.336;2023-09-19T07:27:59;1.70;;;0.68;;
34296;SDS011;20564;42.902;25.336;2023-09-19T07:30:27;1.65;;;0.73;;
34296;SDS011;20564;42.902;25.336;2023-09-19T07:32:56;1.60;;;0.75;;
34296;SDS011;20564;42.902;25.336;2023-09-19T07:35:23;1.45;;;0.73;;
34296;SDS011;20564;42.902;25.336;2023-09-19T07:37:50;1.38;;;0.63;;
34296;SDS011;20564;42.902;25.336;2023-09-19T07:40:21;1.30;;;0.75;;
34296;SDS011;20564;42.902;25.336;2023-09-19T07:42:50;1.35;;;0.55;;
34296;SDS011;20564;42.902;25.336;2023-09-19T07:45:17;1.13;;;0.55;;
34296;SDS011;20564;42.902;25.336;2023-09-19T07:47:45;1.08;;;0.52;;
34296;SDS011;20564;42.902;25.336;2023-09-19T07:50:17;1.17;;;0.52;;
34296;SDS011;20564;42.902;25.336;2023-09-19T07:52:48;2.40;;;0.55;;
34296;SDS011;20564;42.902;25.336;2023-09-19T07:55:19;0.98;;;0.65;;
34296;SDS011;20564;42.902;25.336;2023-09-19T07:57:50;0.68;;;0.40;;
34296;SDS011;20564;42.902;25.336;2023-09-19T08:00:19;1.75;;;0.52;;
34296;SDS011;20564;42.902;25.336;2023-09-19T08:02:46;1.58;;;0.57;;
34296;SDS011;20564;42.902;25.336;2023-09-19T08:05:23;1.17;;;0.30;;
34296;SDS011;20564;42.902;25.336;2023-09-19T08:07:51;2.50;;;0.73;;
34296;SDS011;20564;42.902;25.336;2023-09-19T08:10:19;2.60;;;1.30;;
34296;SDS011;20564;42.902;25.336;2023-09-19T08:12:48;3.38;;;0.75;;
34296;SDS011;20564;42.902;25.336;2023-09-19T08:15:19;9.95;;;2.58;;
34296;SDS011;20564;42.902;25.336;2023-09-19T08:17:47;2.85;;;1.35;;
34296;SDS011;20564;42.902;25.336;2023-09-19T08:20:14;4.57;;;2.42;;
34296;SDS011;20564;42.902;25.336;2023-09-19T08:22:52;3.90;;;1.83;;
34296;SDS011;20564;42.902;25.336;2023-09-19T08:25:23;2.03;;;1.05;;
34296;SDS011;20564;42.902;25.336;2023-09-19T08:27:54;0.43;;;0.38;;
34296;SDS011;20564;42.902;25.336;2023-09-19T08:30:26;2.72;;;0.52;;
34296;SDS011;20564;42.902;25.336;2023-09-19T08:32:57;4.95;;;1.38;;
34296;SDS011;20564;42.902;25.336;2023-09-19T08:35:27;0.32;;;0.32;;
34296;SDS011;20564;42.902;25.336;2023-09-19T08:40:22;0.60;;;0.45;;
34296;SDS011;20564;42.902;25.336;2023-09-19T08:42:53;1.00;;;0.85;;
34296;SDS011;20564;42.902;25.336;2023-09-19T08:45:22;1.77;;;0.63;;
34296;SDS011;20564;42.902;25.336;2023-09-19T08:48:15;0.50;;;0.30;;
34296;SDS011;20564;42.902;25.336;2023-09-19T08:50:56;1.00;;;0.70;;
34296;SDS011;20564;42.902;25.336;2023-09-19T08:56:13;1.25;;;0.68;;
34296;SDS011;20564;42.902;25.336;2023-09-19T08:58:46;0.82;;;0.47;;
34296;SDS011;20564;42.902;25.336;2023-09-19T09:01:20;0.85;;;0.38;;
34296;SDS011;20564;42.902;25.336;2023-09-19T09:03:54;1.85;;;0.20;;
34296;SDS011;20564;42.902;25.336;2023-09-19T09:06:22;0.40;;;0.32;;
34296;SDS011;20564;42.902;25.336;2023-09-19T09:08:51;0.63;;;0.10;;
34296;SDS011;20564;42.902;25.336;2023-09-19T09:11:19;1.60;;;0.77;;
34296;SDS011;20564;42.902;25.336;2023-09-19T09:13:47;0.20;;;0.15;;
34296;SDS011;20564;42.902;25.336;2023-09-19T09:16:15;0.52;;;0.40;;
34296;SDS011;20564;42.902;25.336;2023-09-19T09:18:46;1.50;;;0.68;;
34296;SDS011;20564;42.902;25.336;2023-09-19T09:21:24;1.02;;;0.63;;
34296;SDS011;20564;42.902;25.336;2023-09-19T09:23:52;1.85;;;0.70;;
34296;SDS011;20564;42.902;25.336;2023-09-19T09:29:05;3.45;;;0.73;;
34296;SDS011;20564;42.902;25.336;2023-09-19T09:36:36;0.60;;;0.40;;
34296;SDS011;20564;42.902;25.336;2023-09-19T09:39:08;0.30;;;0.30;;
34296;SDS011;20564;42.902;25.336;2023-09-19T09:41:45;0.40;;;0.32;;
34296;SDS011;20564;42.902;25.336;2023-09-19T09:44:13;2.10;;;0.68;;
34296;SDS011;20564;42.902;25.336;2023-09-19T09:46:46;1.65;;;1.02;;
34296;SDS011;20564;42.902;25.336;2023-09-19T09:49:24;0.25;;;0.25;;
34296;SDS011;20564;42.902;25.336;2023-09-19T09:55:02;0.55;;;0.43;;
34296;SDS011;20564;42.902;25.336;2023-09-19T09:57:36;0.93;;;0.35;;
34296;SDS011;20564;42.902;25.336;2023-09-19T10:00:07;0.70;;;0.35;;
34296;SDS011;20564;42.902;25.336;2023-09-19T10:02:40;0.30;;;0.25;;
34296;SDS011;20564;42.902;25.336;2023-09-19T10:05:19;2.50;;;0.68;;
34296;SDS011;20564;42.902;25.336;2023-09-19T10:07:48;0.20;;;0.20;;
34296;SDS011;20564;42.902;25.336;2023-09-19T10:10:35;2.38;;;0.85;;
34296;SDS011;20564;42.902;25.336;2023-09-19T10:13:10;4.28;;;1.20;;
34296;SDS011;20564;42.902;25.336;2023-09-19T10:15:42;0.20;;;0.20;;
34296;SDS011;20564;42.902;25.336;2023-09-19T10:18:25;0.98;;;0.43;;
34296;SDS011;20564;42.902;25.336;2023-09-19T10:20:54;0.30;;;0.30;;
34296;SDS011;20564;42.902;25.336;2023-09-19T10:23:23;1.42;;;0.50;;
34296;SDS011;20564;42.902;25.336;2023-09-19T10:25:55;0.20;;;0.20;;
34296;SDS011;20564;42.902;25.336;2023-09-19T10:28:25;0.70;;;0.35;;
34296;SDS011;20564;42.902;25.336;2023-09-19T10:30:56;0.25;;;0.25;;
34296;SDS011;20564;42.902;25.336;2023-09-19T10:33:24;0.82;;;0.40;;
34296;SDS011;20564;42.902;25.336;2023-09-19T10:36:06;2.60;;;1.02;;
34296;SDS011;20564;42.902;25.336;2023-09-19T10:38:35;0.25;;;0.25;;
34296;SDS011;20564;42.902;25.336;2023-09-19T10:41:08;0.28;;;0.20;;
34296;SDS011;20564;42.902;25.336;2023-09-19T10:43:39;0.10;;;0.10;;
34296;SDS011;20564;42.902;25.336;2023-09-19T10:46:18;1.67;;;0.57;;
34296;SDS011;20564;42.902;25.336;2023-09-19T10:48:46;1.55;;;0.45;;
34296;SDS011;20564;42.902;25.336;2023-09-19T10:51:16;0.75;;;0.40;;
34296;SDS011;20564;42.902;25.336;2023-09-19T10:53:55;1.70;;;0.85;;
34296;SDS011;20564;42.902;25.336;2023-09-19T10:56:32;0.65;;;0.25;;
34296;SDS011;20564;42.902;25.336;2023-09-19T10:59:10;0.55;;;0.45;;
34296;SDS011;20564;42.902;25.336;2023-09-19T11:01:52;0.52;;;0.32;;
34296;SDS011;20564;42.902;25.336;2023-09-19T11:09:54;1.35;;;0.50;;
34296;SDS011;20564;42.902;25.336;2023-09-19T11:14:55;1.17;;;0.70;;
34296;SDS011;20564;42.902;25.336;2023-09-19T11:17:30;0.20;;;0.20;;
34296;SDS011;20564;42.902;25.336;2023-09-19T11:30:35;0.55;;;0.25;;
34296;SDS011;20564;42.902;25.336;2023-09-19T11:33:16;0.43;;;0.30;;
34296;SDS011;20564;42.902;25.336;2023-09-19T11:43:50;0.20;;;0.20;;
34296;SDS011;20564;42.902;25.336;2023-09-19T11:46:53;0.03;;;0.03;;
34296;SDS011;20564;42.902;25.336;2023-09-19T11:49:27;1.15;;;0.30;;
34296;SDS011;20564;42.902;25.336;2023-09-19T11:52:00;1.05;;;0.77;;
34296;SDS011;20564;42.902;25.336;2023-09-19T11:54:31;0.88;;;0.43;;
34296;SDS011;20564;42.902;25.336;2023-09-19T11:56:59;1.02;;;0.65;;
34296;SDS011;20564;42.902;25.336;2023-09-19T11:59:28;0.30;;;0.30;;
34296;SDS011;20564;42.902;25.336;2023-09-19T12:01:57;1.40;;;0.43;;
34296;SDS011;20564;42.902;25.336;2023-09-19T12:04:39;0.73;;;0.57;;
34296;SDS011;20564;42.902;25.336;2023-09-19T12:07:12;0.50;;;0.30;;
34296;SDS011;20564;42.902;25.336;2023-09-19T12:09:46;0.45;;;0.40;;
34296;SDS011;20564;42.902;25.336;2023-09-19T12:12:25;0.40;;;0.40;;
34296;SDS011;20564;42.902;25.336;2023-09-19T12:14:54;1.25;;;0.88;;
34296;SDS011;20564;42.902;25.336;2023-09-19T12:17:36;0.38;;;0.38;;
34296;SDS011;20564;42.902;25.336;2023-09-19T12:20:12;0.60;;;0.57;;
34296;SDS011;20564;42.902;25.336;2023-09-19T12:22:43;0.57;;;0.50;;
34296;SDS011;20564;42.902;25.336;2023-09-19T12:25:13;1.52;;;0.70;;
34296;SDS011;20564;42.902;25.336;2023-09-19T12:27:43;0.45;;;0.30;;
34296;SDS011;20564;42.902;25.336;2023-09-19T12:30:13;3.50;;;0.85;;
34296;SDS011;20564;42.902;25.336;2023-09-19T12:32:53;0.40;;;0.40;;
34296;SDS011;20564;42.902;25.336;2023-09-19T12:35:27;2.33;;;0.68;;
34296;SDS011;20564;42.902;25.336;2023-09-19T12:37:55;1.85;;;0.65;;
34296;SDS011;20564;42.902;25.336;2023-09-19T12:40:23;0.55;;;0.45;;
34296;SDS011;20564;42.902;25.336;2023-09-19T12:42:56;0.28;;;0.28;;
34296;SDS011;20564;42.902;25.336;2023-09-19T12:45:29;0.65;;;0.30;;
34296;SDS011;20564;42.902;25.336;2023-09-19T12:53:40;0.63;;;0.38;;
34296;SDS011;20564;42.902;25.336;2023-09-19T12:56:13;0.10;;;0.10;;
34296;SDS011;20564;42.902;25.336;2023-09-19T12:59:03;0.08;;;0.08;;
34296;SDS011;20564;42.902;25.336;2023-09-19T13:01:31;2.88;;;0.25;;
34296;SDS011;20564;42.902;25.336;2023-09-19T13:04:21;1.25;;;0.40;;
34296;SDS011;20564;42.902;25.336;2023-09-19T13:06:57;1.80;;;0.50;;
34296;SDS011;20564;42.902;25.336;2023-09-19T13:09:28;1.75;;;0.82;;
34296;SDS011;20564;42.902;25.336;2023-09-19T13:12:02;0.22;;;0.22;;
34296;SDS011;20564;42.902;25.336;2023-09-19T13:14:31;0.55;;;0.43;;
34296;SDS011;20564;42.902;25.336;2023-09-19T13:17:00;0.17;;;0.10;;
34296;SDS011;20564;42.902;25.336;2023-09-19T13:19:50;0.08;;;0.08;;
34296;SDS011;20564;42.902;25.336;2023-09-19T13:22:38;0.75;;;0.17;;
34296;SDS011;20564;42.902;25.336;2023-09-19T13:25:21;0.13;;;0.13;;
34296;SDS011;20564;42.902;25.336;2023-09-19T13:27:49;0.90;;;0.40;;
34296;SDS011;20564;42.902;25.336;2023-09-19T13:30:26;0.03;;;0.00;;
34296;SDS011;20564;42.902;25.336;2023-09-19T13:33:05;0.70;;;0.40;;
34296;SDS011;20564;42.902;25.336;2023-09-19T13:35:41;0.10;;;0.10;;
34296;SDS011;20564;42.902;25.336;2023-09-19T13:38:08;0.93;;;0.20;;
34296;SDS011;20564;42.902;25.336;2023-09-19T13:40:39;0.57;;;0.40;;
34296;SDS011;20564;42.902;25.336;2023-09-19T13:43:10;0.55;;;0.10;;
34296;SDS011;20564;42.902;25.336;2023-09-19T13:45:38;2.65;;;0.40;;
34296;SDS011;20564;42.902;25.336;2023-09-19T13:48:12;0.20;;;0.20;;
34296;SDS011;20564;42.902;25.336;2023-09-19T13:50:40;0.52;;;0.30;;
34296;SDS011;20564;42.902;25.336;2023-09-19T13:53:14;0.65;;;0.55;;
34296;SDS011;20564;42.902;25.336;2023-09-19T13:55:41;1.02;;;0.60;;
34296;SDS011;20564;42.902;25.336;2023-09-19T13:58:09;0.35;;;0.28;;
34296;SDS011;20564;42.902;25.336;2023-09-19T14:00:39;1.65;;;0.75;;
34296;SDS011;20564;42.902;25.336;2023-09-19T14:03:06;0.17;;;0.17;;
34296;SDS011;20564;42.902;25.336;2023-09-19T14:05:34;0.98;;;0.40;;
34296;SDS011;20564;42.902;25.336;2023-09-19T14:08:05;0.75;;;0.75;;
34296;SDS011;20564;42.902;25.336;2023-09-19T14:10:32;1.92;;;0.93;;
34296;SDS011;20564;42.902;25.336;2023-09-19T14:13:00;0.80;;;0.52;;
34296;SDS011;20564;42.902;25.336;2023-09-19T14:15:28;2.63;;;1.17;;
34296;SDS011;20564;42.902;25.336;2023-09-19T14:17:58;0.80;;;0.45;;
34296;SDS011;20564;42.902;25.336;2023-09-19T14:20:27;1.75;;;0.60;;
34296;SDS011;20564;42.902;25.336;2023-09-19T14:22:56;0.15;;;0.15;;
34296;SDS011;20564;42.902;25.336;2023-09-19T14:25:26;0.52;;;0.52;;
34296;SDS011;20564;42.902;25.336;2023-09-19T14:27:53;2.20;;;0.77;;
34296;SDS011;20564;42.902;25.336;2023-09-19T14:30:20;0.15;;;0.15;;
34296;SDS011;20564;42.902;25.336;2023-09-19T14:32:47;1.00;;;0.50;;
34296;SDS011;20564;42.902;25.336;2023-09-19T14:35:14;2.85;;;0.80;;
34296;SDS011;20564;42.902;25.336;2023-09-19T14:37:43;0.22;;;0.22;;
34296;SDS011;20564;42.902;25.336;2023-09-19T14:40:12;1.60;;;0.40;;
34296;SDS011;20564;42.902;25.336;2023-09-19T14:42:42;2.08;;;0.65;;
34296;SDS011;20564;42.902;25.336;2023-09-19T14:45:11;0.52;;;0.20;;
34296;SDS011;20564;42.902;25.336;2023-09-19T14:47:41;0.70;;;0.52;;
34296;SDS011;20564;42.902;25.336;2023-09-19T14:50:08;0.20;;;0.20;;
34296;SDS011;20564;42.902;25.336;2023-09-19T14:52:37;0.55;;;0.43;;
34296;SDS011;20564;42.902;25.336;2023-09-19T14:55:09;0.85;;;0.30;;
34296;SDS011;20564;42.902;25.336;2023-09-19T14:57:41;0.88;;;0.52;;
34296;SDS011;20564;42.902;25.336;2023-09-19T15:00:11;0.20;;;0.10;;
34296;SDS011;20564;42.902;25.336;2023-09-19T15:02:52;1.17;;;0.45;;
34296;SDS011;20564;42.902;25.336;2023-09-19T15:05:44;0.75;;;0.50;;
34296;SDS011;20564;42.902;25.336;2023-09-19T15:08:11;0.68;;;0.68;;
34296;SDS011;20564;42.902;25.336;2023-09-19T15:13:15;0.30;;;0.30;;
34296;SDS011;20564;42.902;25.336;2023-09-19T15:15:43;1.00;;;0.57;;
34296;SDS011;20564;42.902;25.336;2023-09-19T15:18:13;6.30;;;0.60;;
34296;SDS011;20564;42.902;25.336;2023-09-19T15:20:44;0.20;;;0.20;;
34296;SDS011;20564;42.902;25.336;2023-09-19T15:23:11;1.33;;;0.60;;
34296;SDS011;20564;42.902;25.336;2023-09-19T15:25:39;0.20;;;0.20;;
34296;SDS011;20564;42.902;25.336;2023-09-19T15:28:14;0.38;;;0.25;;
34296;SDS011;20564;42.902;25.336;2023-09-19T15:30:42;0.85;;;0.68;;
34296;SDS011;20564;42.902;25.336;2023-09-19T15:33:09;1.60;;;0.50;;
34296;SDS011;20564;42.902;25.336;2023-09-19T15:35:36;2.30;;;0.70;;
34296;SDS011;20564;42.902;25.336;2023-09-19T15:40:31;1.98;;;0.73;;
34296;SDS011;20564;42.902;25.336;2023-09-19T15:42:58;0.32;;;0.32;;
34296;SDS011;20564;42.902;25.336;2023-09-19T15:45:26;0.68;;;0.30;;
34296;SDS011;20564;42.902;25.336;2023-09-19T15:47:57;1.83;;;0.77;;
34296;SDS011;20564;42.902;25.336;2023-09-19T15:50:24;0.00;;;0.00;;
34296;SDS011;20564;42.902;25.336;2023-09-19T15:55:21;2.22;;;0.85;;
34296;SDS011;20564;42.902;25.336;2023-09-19T15:57:49;2.97;;;1.45;;
34296;SDS011;20564;42.902;25.336;2023-09-19T16:00:16;0.47;;;0.40;;
34296;SDS011;20564;42.902;25.336;2023-09-19T16:05:12;0.68;;;0.50;;
34296;SDS011;20564;42.902;25.336;2023-09-19T16:10:06;3.55;;;0.55;;
34296;SDS011;20564;42.902;25.336;2023-09-19T16:12:34;0.85;;;0.57;;
34296;SDS011;20564;42.902;25.336;2023-09-19T16:15:02;0.70;;;0.25;;
34296;SDS011;20564;42.902;25.336;2023-09-19T16:17:32;1.02;;;0.57;;
34296;SDS011;20564;42.902;25.336;2023-09-19T16:19:59;0.50;;;0.38;;
34296;SDS011;20564;42.902;25.336;2023-09-19T16:24:53;0.50;;;0.40;;
34296;SDS011;20564;42.902;25.336;2023-09-19T16:27:20;0.20;;;0.20;;
34296;SDS011;20564;42.902;25.336;2023-09-19T16:29:47;0.93;;;0.45;;
34296;SDS011;20564;42.902;25.336;2023-09-19T16:32:15;2.38;;;0.63;;
34296;SDS011;20564;42.902;25.336;2023-09-19T16:34:42;0.43;;;0.35;;